Nathrop, CO (81236)

2:33 PM MST on December 06, 2016 (GMT -0700)
Mesa Antero | | Change Station

Elev 8202 ft 38.68 °N, 106.10 °W | Updated 2 minutes ago

Overcast
Overcast
27.5 °F
Feels Like 28 °F
N
2.9
Wind Variable Wind from South
Gusts 6.0 mph

Today
High -- | Low -- °F
--% Chance of Precip.
Yesterday
High -- | Low -- °F
Precip. -- in
Pressure 29.66 in
Visibility 10.0 miles
Clouds Scattered Clouds 2100 ft
Mostly Cloudy 2700 ft
Overcast 3300 ft
Windchill 28 °F
Dew Point 8 °F
Humidity 43%
Rainfall 0.00 in
Snow Depth Not available.
7:08 AM 4:42 PM
Waxing Crescent, 45% visible
METAR KAEJ 062115Z AUTO 33007KT 10SM SCT021 BKN027 OVC033 M01/M08 A2966 RMK AO2 T10111082
Pressure 29.66 in
Visibility 10.0 miles
Clouds Scattered Clouds 2100 ft
Mostly Cloudy 2700 ft
Overcast 3300 ft
Windchill 28 °F
Dew Point 8 °F
Humidity 43%
Rainfall 0.00 in
Snow Depth Not available.
7:08 AM 4:42 PM
Waxing Crescent, 45% visible
METAR KAEJ 062115Z AUTO 33007KT 10SM SCT021 BKN027 OVC033 M01/M08 A2966 RMK AO2 T10111082

10-Day Weather Forecast

Almanac

Astronomy

Dec. 06, 2016 Rise Set
Actual Time
Civil Twilight
Nautical Twilight
Astronomical Twilight
Moon
Length of Visible Light
Length of Day
Tomorrow will be .
, % of the Moon is Illuminated

Today's Extremes

State Highs State Lows

Community

WunderPhotos

Upload Photos

1,956,020 photos uploaded!

WunderBlog® & News

Nearby

Air Quality

  Air Quality AQ Index Pollutant
Not available.

Snow Depth

Station Depth Elevation

Earthquake Activity

City Distance Mag. Time & Date
Minimum magnitude displayed is 2.5.

Coastal Water Temperatures

Place Temperature

Stations

Nearby Weather Stations

Station Location Temp. Windchill Dew Point Humidity Wind Precip. Elev Updated Type
                   

Watches & Warnings

There are currently no watches in effect.